sensor_id;sensor_type;location;lat;lon;timestamp;temperature;humidity
22674;DHT22;11504;43.334;21.918;2023-06-14T00:02:28;17.0;100.0
22674;DHT22;11504;43.334;21.918;2023-06-14T00:07:05;17.0;100.0
22674;DHT22;11504;43.334;21.918;2023-06-14T00:11:43;17.0;100.0
22674;DHT22;11504;43.334;21.918;2023-06-14T00:16:20;17.0;100.0
22674;DHT22;11504;43.334;21.918;2023-06-14T00:20:57;16.9;100.0
22674;DHT22;11504;43.334;21.918;2023-06-14T00:25:33;16.9;100.0
22674;DHT22;11504;43.334;21.918;2023-06-14T00:30:11;16.8;100.0
22674;DHT22;11504;43.334;21.918;2023-06-14T00:34:49;16.8;100.0
22674;DHT22;11504;43.334;21.918;2023-06-14T00:39:26;16.8;100.0
22674;DHT22;11504;43.334;21.918;2023-06-14T00:44:03;16.8;100.0
22674;DHT22;11504;43.334;21.918;2023-06-14T00:48:40;16.8;100.0
22674;DHT22;11504;43.334;21.918;2023-06-14T00:53:18;16.8;100.0
22674;DHT22;11504;43.334;21.918;2023-06-14T00:57:56;16.8;100.0
22674;DHT22;11504;43.334;21.918;2023-06-14T01:02:35;16.8;100.0
22674;DHT22;11504;43.334;21.918;2023-06-14T01:07:21;16.8;100.0
22674;DHT22;11504;43.334;21.918;2023-06-14T01:12:55;16.8;100.0
22674;DHT22;11504;43.334;21.918;2023-06-14T01:17:59;16.7;100.0
22674;DHT22;11504;43.334;21.918;2023-06-14T01:22:48;16.7;100.0
22674;DHT22;11504;43.334;21.918;2023-06-14T01:27:29;16.6;100.0
22674;DHT22;11504;43.334;21.918;2023-06-14T01:32:07;16.6;100.0
22674;DHT22;11504;43.334;21.918;2023-06-14T01:36:47;16.5;100.0
22674;DHT22;11504;43.334;21.918;2023-06-14T01:41:31;16.5;100.0
22674;DHT22;11504;43.334;21.918;2023-06-14T01:46:13;16.5;100.0
22674;DHT22;11504;43.334;21.918;2023-06-14T01:50:52;16.6;100.0
22674;DHT22;11504;43.334;21.918;2023-06-14T01:55:29;16.6;100.0
22674;DHT22;11504;43.334;21.918;2023-06-14T02:00:07;16.7;100.0
22674;DHT22;11504;43.334;21.918;2023-06-14T02:04:49;16.7;100.0
22674;DHT22;11504;43.334;21.918;2023-06-14T02:09:26;16.7;100.0
22674;DHT22;11504;43.334;21.918;2023-06-14T02:14:03;16.7;100.0
22674;DHT22;11504;43.334;21.918;2023-06-14T02:18:40;16.7;100.0
22674;DHT22;11504;43.334;21.918;2023-06-14T02:23:17;16.7;100.0
22674;DHT22;11504;43.334;21.918;2023-06-14T02:27:53;16.8;100.0
22674;DHT22;11504;43.334;21.918;2023-06-14T02:32:31;16.8;100.0
22674;DHT22;11504;43.334;21.918;2023-06-14T02:37:07;16.8;100.0
22674;DHT22;11504;43.334;21.918;2023-06-14T02:41:44;16.8;100.0
22674;DHT22;11504;43.334;21.918;2023-06-14T02:46:20;16.8;100.0
22674;DHT22;11504;43.334;21.918;2023-06-14T02:50:57;16.8;100.0
22674;DHT22;11504;43.334;21.918;2023-06-14T02:55:34;16.8;100.0
22674;DHT22;11504;43.334;21.918;2023-06-14T03:00:11;16.8;100.0
22674;DHT22;11504;43.334;21.918;2023-06-14T03:04:49;16.8;100.0
22674;DHT22;11504;43.334;21.918;2023-06-14T03:09:26;16.8;100.0
22674;DHT22;11504;43.334;21.918;2023-06-14T03:14:02;16.8;100.0
22674;DHT22;11504;43.334;21.918;2023-06-14T03:18:39;16.8;100.0
22674;DHT22;11504;43.334;21.918;2023-06-14T03:23:15;16.8;100.0
22674;DHT22;11504;43.334;21.918;2023-06-14T03:27:51;16.8;100.0
22674;DHT22;11504;43.334;21.918;2023-06-14T03:32:28;16.8;100.0
22674;DHT22;11504;43.334;21.918;2023-06-14T03:37:04;16.8;100.0
22674;DHT22;11504;43.334;21.918;2023-06-14T03:41:41;16.8;100.0
22674;DHT22;11504;43.334;21.918;2023-06-14T03:46:18;16.8;100.0
22674;DHT22;11504;43.334;21.918;2023-06-14T03:50:54;16.9;100.0
22674;DHT22;11504;43.334;21.918;2023-06-14T03:55:31;16.9;100.0
22674;DHT22;11504;43.334;21.918;2023-06-14T04:00:09;17.0;100.0
22674;DHT22;11504;43.334;21.918;2023-06-14T04:04:50;17.0;100.0
22674;DHT22;11504;43.334;21.918;2023-06-14T04:09:26;17.1;100.0
22674;DHT22;11504;43.334;21.918;2023-06-14T04:14:03;17.1;100.0
22674;DHT22;11504;43.334;21.918;2023-06-14T04:18:41;17.2;100.0
22674;DHT22;11504;43.334;21.918;2023-06-14T04:23:18;17.2;100.0
22674;DHT22;11504;43.334;21.918;2023-06-14T04:27:55;17.4;100.0
22674;DHT22;11504;43.334;21.918;2023-06-14T04:32:31;17.4;100.0
22674;DHT22;11504;43.334;21.918;2023-06-14T04:37:08;17.7;100.0
22674;DHT22;11504;43.334;21.918;2023-06-14T04:41:45;17.7;100.0
22674;DHT22;11504;43.334;21.918;2023-06-14T04:46:22;17.7;100.0
22674;DHT22;11504;43.334;21.918;2023-06-14T04:50:58;18.1;100.0
22674;DHT22;11504;43.334;21.918;2023-06-14T04:55:35;18.1;100.0
22674;DHT22;11504;43.334;21.918;2023-06-14T05:00:12;18.5;100.0
22674;DHT22;11504;43.334;21.918;2023-06-14T05:04:50;18.5;100.0
22674;DHT22;11504;43.334;21.918;2023-06-14T05:09:27;20.6;100.0
22674;DHT22;11504;43.334;21.918;2023-06-14T05:14:04;20.6;100.0
22674;DHT22;11504;43.334;21.918;2023-06-14T05:18:41;22.6;100.0
22674;DHT22;11504;43.334;21.918;2023-06-14T05:23:17;22.6;100.0
22674;DHT22;11504;43.334;21.918;2023-06-14T05:27:54;22.3;100.0
22674;DHT22;11504;43.334;21.918;2023-06-14T05:32:30;22.3;100.0
22674;DHT22;11504;43.334;21.918;2023-06-14T05:37:07;22.0;100.0
22674;DHT22;11504;43.334;21.918;2023-06-14T05:41:44;22.0;100.0
22674;DHT22;11504;43.334;21.918;2023-06-14T05:46:20;22.0;100.0
22674;DHT22;11504;43.334;21.918;2023-06-14T05:50:59;24.8;100.0
22674;DHT22;11504;43.334;21.918;2023-06-14T05:55:35;24.8;100.0
22674;DHT22;11504;43.334;21.918;2023-06-14T06:00:12;27.6;100.0
22674;DHT22;11504;43.334;21.918;2023-06-14T06:04:52;27.6;100.0
22674;DHT22;11504;43.334;21.918;2023-06-14T06:09:29;30.0;100.0
22674;DHT22;11504;43.334;21.918;2023-06-14T06:14:06;30.0;100.0
22674;DHT22;11504;43.334;21.918;2023-06-14T06:18:42;32.3;100.0
22674;DHT22;11504;43.334;21.918;2023-06-14T06:23:19;32.3;100.0
22674;DHT22;11504;43.334;21.918;2023-06-14T06:27:56;31.9;100.0
22674;DHT22;11504;43.334;21.918;2023-06-14T06:32:33;31.9;100.0
22674;DHT22;11504;43.334;21.918;2023-06-14T06:37:10;31.5;100.0
22674;DHT22;11504;43.334;21.918;2023-06-14T06:41:48;31.5;100.0
22674;DHT22;11504;43.334;21.918;2023-06-14T06:46:25;31.5;100.0
22674;DHT22;11504;43.334;21.918;2023-06-14T06:51:01;31.0;100.0
22674;DHT22;11504;43.334;21.918;2023-06-14T06:55:39;31.0;100.0
22674;DHT22;11504;43.334;21.918;2023-06-14T07:00:16;30.6;100.0
22674;DHT22;11504;43.334;21.918;2023-06-14T07:04:56;30.6;100.0
22674;DHT22;11504;43.334;21.918;2023-06-14T07:09:33;30.6;100.0
22674;DHT22;11504;43.334;21.918;2023-06-14T07:14:09;30.6;100.0
22674;DHT22;11504;43.334;21.918;2023-06-14T07:18:46;30.5;100.0
22674;DHT22;11504;43.334;21.918;2023-06-14T07:23:23;30.5;100.0
22674;DHT22;11504;43.334;21.918;2023-06-14T07:27:59;30.1;100.0
22674;DHT22;11504;43.334;21.918;2023-06-14T07:32:36;30.1;100.0
22674;DHT22;11504;43.334;21.918;2023-06-14T07:37:14;29.7;100.0
22674;DHT22;11504;43.334;21.918;2023-06-14T07:41:51;29.7;100.0
22674;DHT22;11504;43.334;21.918;2023-06-14T07:46:27;29.7;100.0
22674;DHT22;11504;43.334;21.918;2023-06-14T07:51:04;28.4;100.0
22674;DHT22;11504;43.334;21.918;2023-06-14T07:55:41;28.4;100.0
22674;DHT22;11504;43.334;21.918;2023-06-14T08:00:18;27.1;100.0
22674;DHT22;11504;43.334;21.918;2023-06-14T08:04:57;27.1;100.0
22674;DHT22;11504;43.334;21.918;2023-06-14T08:09:34;27.9;100.0
22674;DHT22;11504;43.334;21.918;2023-06-14T08:14:11;27.9;100.0
22674;DHT22;11504;43.334;21.918;2023-06-14T08:18:48;28.7;100.0
22674;DHT22;11504;43.334;21.918;2023-06-14T08:23:25;28.7;100.0
22674;DHT22;11504;43.334;21.918;2023-06-14T08:28:01;29.5;100.0
22674;DHT22;11504;43.334;21.918;2023-06-14T08:32:38;29.5;100.0
22674;DHT22;11504;43.334;21.918;2023-06-14T08:37:14;30.3;100.0
22674;DHT22;11504;43.334;21.918;2023-06-14T08:41:52;30.3;100.0
22674;DHT22;11504;43.334;21.918;2023-06-14T08:46:33;30.3;100.0
22674;DHT22;11504;43.334;21.918;2023-06-14T08:51:13;30.0;100.0
22674;DHT22;11504;43.334;21.918;2023-06-14T08:55:55;30.0;100.0
22674;DHT22;11504;43.334;21.918;2023-06-14T09:00:31;29.8;100.0
22674;DHT22;11504;43.334;21.918;2023-06-14T09:05:09;29.8;100.0
22674;DHT22;11504;43.334;21.918;2023-06-14T09:09:47;29.4;100.0
22674;DHT22;11504;43.334;21.918;2023-06-14T09:14:24;29.4;100.0
22674;DHT22;11504;43.334;21.918;2023-06-14T09:19:01;28.9;100.0
22674;DHT22;11504;43.334;21.918;2023-06-14T09:23:38;28.9;100.0
22674;DHT22;11504;43.334;21.918;2023-06-14T09:28:26;29.2;100.0
22674;DHT22;11504;43.334;21.918;2023-06-14T09:33:04;29.2;100.0
22674;DHT22;11504;43.334;21.918;2023-06-14T09:37:41;29.4;100.0
22674;DHT22;11504;43.334;21.918;2023-06-14T09:42:18;29.4;100.0
22674;DHT22;11504;43.334;21.918;2023-06-14T09:46:55;29.4;100.0
22674;DHT22;11504;43.334;21.918;2023-06-14T09:51:33;29.3;100.0
22674;DHT22;11504;43.334;21.918;2023-06-14T09:56:27;29.3;100.0
22674;DHT22;11504;43.334;21.918;2023-06-14T10:01:18;29.2;100.0
22674;DHT22;11504;43.334;21.918;2023-06-14T10:06:02;29.2;100.0
22674;DHT22;11504;43.334;21.918;2023-06-14T10:10:46;28.8;100.0
22674;DHT22;11504;43.334;21.918;2023-06-14T10:15:31;28.8;100.0
22674;DHT22;11504;43.334;21.918;2023-06-14T10:20:49;28.3;100.0
22674;DHT22;11504;43.334;21.918;2023-06-14T10:26:01;28.3;100.0
22674;DHT22;11504;43.334;21.918;2023-06-14T10:30:37;28.5;100.0
22674;DHT22;11504;43.334;21.918;2023-06-14T10:35:16;28.5;100.0
22674;DHT22;11504;43.334;21.918;2023-06-14T10:39:53;28.7;100.0
22674;DHT22;11504;43.334;21.918;2023-06-14T10:44:32;28.7;100.0
22674;DHT22;11504;43.334;21.918;2023-06-14T10:49:37;28.5;100.0
22674;DHT22;11504;43.334;21.918;2023-06-14T10:54:24;28.5;100.0
22674;DHT22;11504;43.334;21.918;2023-06-14T10:59:03;28.3;100.0
22674;DHT22;11504;43.334;21.918;2023-06-14T11:03:51;28.3;100.0
22674;DHT22;11504;43.334;21.918;2023-06-14T11:09:48;28.1;100.0
22674;DHT22;11504;43.334;21.918;2023-06-14T11:15:13;28.1;100.0
22674;DHT22;11504;43.334;21.918;2023-06-14T11:19:50;27.9;100.0
22674;DHT22;11504;43.334;21.918;2023-06-14T11:24:45;27.9;100.0
22674;DHT22;11504;43.334;21.918;2023-06-14T11:29:22;28.0;100.0
22674;DHT22;11504;43.334;21.918;2023-06-14T11:33:59;28.0;100.0
22674;DHT22;11504;43.334;21.918;2023-06-14T11:38:37;28.2;100.0
22674;DHT22;11504;43.334;21.918;2023-06-14T11:43:13;28.2;100.0
22674;DHT22;11504;43.334;21.918;2023-06-14T11:47:50;28.2;100.0
22674;DHT22;11504;43.334;21.918;2023-06-14T11:52:27;28.2;100.0
22674;DHT22;11504;43.334;21.918;2023-06-14T11:57:06;28.2;100.0
22674;DHT22;11504;43.334;21.918;2023-06-14T12:01:43;28.3;100.0
22674;DHT22;11504;43.334;21.918;2023-06-14T12:06:26;28.3;100.0
22674;DHT22;11504;43.334;21.918;2023-06-14T12:11:11;28.5;100.0
22674;DHT22;11504;43.334;21.918;2023-06-14T12:15:54;28.5;100.0
22674;DHT22;11504;43.334;21.918;2023-06-14T12:20:32;28.7;100.0
22674;DHT22;11504;43.334;21.918;2023-06-14T12:25:09;28.7;100.0
22674;DHT22;11504;43.334;21.918;2023-06-14T12:30:08;28.4;100.0
22674;DHT22;11504;43.334;21.918;2023-06-14T12:34:48;28.4;100.0
22674;DHT22;11504;43.334;21.918;2023-06-14T12:39:25;28.2;100.0
22674;DHT22;11504;43.334;21.918;2023-06-14T12:44:01;28.2;100.0
22674;DHT22;11504;43.334;21.918;2023-06-14T12:48:39;27.8;100.0
22674;DHT22;11504;43.334;21.918;2023-06-14T12:53:15;27.8;100.0
22674;DHT22;11504;43.334;21.918;2023-06-14T12:57:52;27.3;100.0
22674;DHT22;11504;43.334;21.918;2023-06-14T13:02:29;27.3;100.0
22674;DHT22;11504;43.334;21.918;2023-06-14T13:07:05;27.3;100.0
22674;DHT22;11504;43.334;21.918;2023-06-14T13:11:42;27.3;100.0
22674;DHT22;11504;43.334;21.918;2023-06-14T13:16:18;27.3;100.0
22674;DHT22;11504;43.334;21.918;2023-06-14T13:20:55;27.3;100.0
22674;DHT22;11504;43.334;21.918;2023-06-14T13:25:32;27.3;100.0
22674;DHT22;11504;43.334;21.918;2023-06-14T13:30:11;27.2;100.0
22674;DHT22;11504;43.334;21.918;2023-06-14T13:34:49;27.2;100.0
22674;DHT22;11504;43.334;21.918;2023-06-14T13:39:26;27.2;100.0
22674;DHT22;11504;43.334;21.918;2023-06-14T13:44:03;27.2;100.0
22674;DHT22;11504;43.334;21.918;2023-06-14T13:48:40;26.9;100.0
22674;DHT22;11504;43.334;21.918;2023-06-14T13:53:16;26.9;100.0
22674;DHT22;11504;43.334;21.918;2023-06-14T13:57:52;26.6;100.0
22674;DHT22;11504;43.334;21.918;2023-06-14T14:02:29;26.6;100.0
22674;DHT22;11504;43.334;21.918;2023-06-14T14:07:06;26.6;100.0
22674;DHT22;11504;43.334;21.918;2023-06-14T14:11:44;26.3;100.0
22674;DHT22;11504;43.334;21.918;2023-06-14T14:16:20;26.3;100.0
22674;DHT22;11504;43.334;21.918;2023-06-14T14:20:57;26.0;100.0
22674;DHT22;11504;43.334;21.918;2023-06-14T14:25:34;26.0;100.0
22674;DHT22;11504;43.334;21.918;2023-06-14T14:30:11;24.9;100.0
22674;DHT22;11504;43.334;21.918;2023-06-14T14:34:50;24.9;100.0
22674;DHT22;11504;43.334;21.918;2023-06-14T14:39:27;23.8;100.0
22674;DHT22;11504;43.334;21.918;2023-06-14T14:44:04;23.8;100.0
22674;DHT22;11504;43.334;21.918;2023-06-14T14:48:42;23.0;100.0
22674;DHT22;11504;43.334;21.918;2023-06-14T14:53:18;23.0;100.0
22674;DHT22;11504;43.334;21.918;2023-06-14T14:57:55;22.1;100.0
22674;DHT22;11504;43.334;21.918;2023-06-14T15:02:32;22.1;100.0
22674;DHT22;11504;43.334;21.918;2023-06-14T15:07:09;22.1;100.0
22674;DHT22;11504;43.334;21.918;2023-06-14T15:11:46;22.4;100.0
22674;DHT22;11504;43.334;21.918;2023-06-14T15:16:22;22.4;100.0
22674;DHT22;11504;43.334;21.918;2023-06-14T15:20:59;22.6;100.0
22674;DHT22;11504;43.334;21.918;2023-06-14T15:25:36;22.6;100.0
22674;DHT22;11504;43.334;21.918;2023-06-14T15:30:13;22.8;100.0
22674;DHT22;11504;43.334;21.918;2023-06-14T15:34:49;22.8;100.0
22674;DHT22;11504;43.334;21.918;2023-06-14T15:39:26;22.9;100.0
22674;DHT22;11504;43.334;21.918;2023-06-14T15:44:04;22.9;100.0
22674;DHT22;11504;43.334;21.918;2023-06-14T15:48:46;23.1;100.0
22674;DHT22;11504;43.334;21.918;2023-06-14T15:53:23;23.1;100.0
22674;DHT22;11504;43.334;21.918;2023-06-14T15:57:59;23.3;100.0
22674;DHT22;11504;43.334;21.918;2023-06-14T16:02:36;23.3;100.0
22674;DHT22;11504;43.334;21.918;2023-06-14T16:07:13;23.3;100.0
22674;DHT22;11504;43.334;21.918;2023-06-14T16:11:50;23.3;100.0
22674;DHT22;11504;43.334;21.918;2023-06-14T16:16:27;23.3;100.0
22674;DHT22;11504;43.334;21.918;2023-06-14T16:21:04;23.3;100.0
22674;DHT22;11504;43.334;21.918;2023-06-14T16:25:40;23.3;100.0
22674;DHT22;11504;43.334;21.918;2023-06-14T16:30:17;23.2;100.0
22674;DHT22;11504;43.334;21.918;2023-06-14T16:34:54;23.2;100.0
22674;DHT22;11504;43.334;21.918;2023-06-14T16:39:30;23.2;100.0
22674;DHT22;11504;43.334;21.918;2023-06-14T16:44:06;23.2;100.0
22674;DHT22;11504;43.334;21.918;2023-06-14T16:48:43;23.0;100.0
22674;DHT22;11504;43.334;21.918;2023-06-14T16:53:19;23.0;100.0
22674;DHT22;11504;43.334;21.918;2023-06-14T16:57:56;22.9;100.0
22674;DHT22;11504;43.334;21.918;2023-06-14T17:02:33;22.9;100.0
22674;DHT22;11504;43.334;21.918;2023-06-14T17:07:09;22.9;100.0
22674;DHT22;11504;43.334;21.918;2023-06-14T17:11:46;22.6;100.0
22674;DHT22;11504;43.334;21.918;2023-06-14T17:16:22;22.6;100.0
22674;DHT22;11504;43.334;21.918;2023-06-14T17:20:59;22.4;100.0
22674;DHT22;11504;43.334;21.918;2023-06-14T17:25:36;22.4;100.0
22674;DHT22;11504;43.334;21.918;2023-06-14T17:30:13;22.2;100.0
22674;DHT22;11504;43.334;21.918;2023-06-14T17:34:51;22.2;100.0
22674;DHT22;11504;43.334;21.918;2023-06-14T17:39:27;22.1;100.0
22674;DHT22;11504;43.334;21.918;2023-06-14T17:44:04;22.1;100.0
22674;DHT22;11504;43.334;21.918;2023-06-14T17:48:40;22.0;100.0
22674;DHT22;11504;43.334;21.918;2023-06-14T17:53:17;22.0;100.0
22674;DHT22;11504;43.334;21.918;2023-06-14T17:57:54;21.9;100.0
22674;DHT22;11504;43.334;21.918;2023-06-14T18:02:30;21.9;100.0
22674;DHT22;11504;43.334;21.918;2023-06-14T18:07:07;21.9;100.0
22674;DHT22;11504;43.334;21.918;2023-06-14T18:11:43;21.8;100.0
22674;DHT22;11504;43.334;21.918;2023-06-14T18:16:20;21.8;100.0
22674;DHT22;11504;43.334;21.918;2023-06-14T18:20:56;21.7;100.0
22674;DHT22;11504;43.334;21.918;2023-06-14T18:25:33;21.7;100.0
22674;DHT22;11504;43.334;21.918;2023-06-14T18:30:11;21.7;100.0
22674;DHT22;11504;43.334;21.918;2023-06-14T18:34:49;21.7;100.0
22674;DHT22;11504;43.334;21.918;2023-06-14T18:39:26;21.7;100.0
22674;DHT22;11504;43.334;21.918;2023-06-14T18:44:02;21.7;100.0
22674;DHT22;11504;43.334;21.918;2023-06-14T18:48:39;21.7;100.0
22674;DHT22;11504;43.334;21.918;2023-06-14T18:53:16;21.7;100.0
22674;DHT22;11504;43.334;21.918;2023-06-14T18:57:52;21.7;100.0
22674;DHT22;11504;43.334;21.918;2023-06-14T19:02:29;21.7;100.0
22674;DHT22;11504;43.334;21.918;2023-06-14T19:07:05;21.7;100.0
22674;DHT22;11504;43.334;21.918;2023-06-14T19:11:41;21.6;100.0
22674;DHT22;11504;43.334;21.918;2023-06-14T19:16:18;21.6;100.0
22674;DHT22;11504;43.334;21.918;2023-06-14T19:20:54;21.5;100.0
22674;DHT22;11504;43.334;21.918;2023-06-14T19:25:30;21.5;100.0
22674;DHT22;11504;43.334;21.918;2023-06-14T19:30:07;21.4;100.0
22674;DHT22;11504;43.334;21.918;2023-06-14T19:34:45;21.4;100.0
22674;DHT22;11504;43.334;21.918;2023-06-14T19:39:21;21.3;100.0
22674;DHT22;11504;43.334;21.918;2023-06-14T19:43:57;21.3;100.0
22674;DHT22;11504;43.334;21.918;2023-06-14T19:48:34;21.2;100.0
22674;DHT22;11504;43.334;21.918;2023-06-14T19:53:10;21.2;100.0
22674;DHT22;11504;43.334;21.918;2023-06-14T19:57:47;21.1;100.0
22674;DHT22;11504;43.334;21.918;2023-06-14T20:02:23;21.1;100.0
22674;DHT22;11504;43.334;21.918;2023-06-14T20:07:00;21.1;100.0
22674;DHT22;11504;43.334;21.918;2023-06-14T20:11:36;21.0;100.0
22674;DHT22;11504;43.334;21.918;2023-06-14T20:16:15;21.0;100.0
22674;DHT22;11504;43.334;21.918;2023-06-14T20:20:52;20.9;100.0
22674;DHT22;11504;43.334;21.918;2023-06-14T20:25:28;20.9;100.0
22674;DHT22;11504;43.334;21.918;2023-06-14T20:30:06;20.9;100.0
22674;DHT22;11504;43.334;21.918;2023-06-14T20:34:46;20.9;100.0
22674;DHT22;11504;43.334;21.918;2023-06-14T20:39:23;20.9;100.0
22674;DHT22;11504;43.334;21.918;2023-06-14T20:44:00;20.9;100.0
22674;DHT22;11504;43.334;21.918;2023-06-14T20:48:36;20.9;100.0
22674;DHT22;11504;43.334;21.918;2023-06-14T20:53:13;20.9;100.0
22674;DHT22;11504;43.334;21.918;2023-06-14T20:57:50;20.9;100.0
22674;DHT22;11504;43.334;21.918;2023-06-14T21:02:26;20.9;100.0
22674;DHT22;11504;43.334;21.918;2023-06-14T21:07:03;20.9;100.0
22674;DHT22;11504;43.334;21.918;2023-06-14T21:11:41;20.9;100.0
22674;DHT22;11504;43.334;21.918;2023-06-14T21:16:17;20.9;100.0
22674;DHT22;11504;43.334;21.918;2023-06-14T21:20:54;20.9;100.0
22674;DHT22;11504;43.334;21.918;2023-06-14T21:25:30;20.9;100.0
22674;DHT22;11504;43.334;21.918;2023-06-14T21:30:07;20.9;100.0
22674;DHT22;11504;43.334;21.918;2023-06-14T21:34:50;20.9;100.0
22674;DHT22;11504;43.334;21.918;2023-06-14T21:39:27;20.9;100.0
22674;DHT22;11504;43.334;21.918;2023-06-14T21:44:04;20.9;100.0
22674;DHT22;11504;43.334;21.918;2023-06-14T21:48:40;20.8;100.0
22674;DHT22;11504;43.334;21.918;2023-06-14T21:53:17;20.8;100.0
22674;DHT22;11504;43.334;21.918;2023-06-14T21:57:53;20.8;100.0
22674;DHT22;11504;43.334;21.918;2023-06-14T22:02:30;20.8;100.0
22674;DHT22;11504;43.334;21.918;2023-06-14T22:07:06;20.8;100.0
22674;DHT22;11504;43.334;21.918;2023-06-14T22:11:43;20.7;100.0
22674;DHT22;11504;43.334;21.918;2023-06-14T22:16:21;20.7;100.0
22674;DHT22;11504;43.334;21.918;2023-06-14T22:20:57;20.6;100.0
22674;DHT22;11504;43.334;21.918;2023-06-14T22:25:34;20.6;100.0
22674;DHT22;11504;43.334;21.918;2023-06-14T22:30:11;20.6;100.0
22674;DHT22;11504;43.334;21.918;2023-06-14T22:34:51;20.6;100.0
22674;DHT22;11504;43.334;21.918;2023-06-14T22:39:28;20.6;100.0
22674;DHT22;11504;43.334;21.918;2023-06-14T22:44:05;20.6;100.0
22674;DHT22;11504;43.334;21.918;2023-06-14T22:48:42;20.6;100.0
22674;DHT22;11504;43.334;21.918;2023-06-14T22:53:18;20.6;100.0
22674;DHT22;11504;43.334;21.918;2023-06-14T22:57:55;20.6;100.0
22674;DHT22;11504;43.334;21.918;2023-06-14T23:02:32;20.6;100.0
22674;DHT22;11504;43.334;21.918;2023-06-14T23:07:09;20.6;100.0
22674;DHT22;11504;43.334;21.918;2023-06-14T23:11:45;20.5;100.0
22674;DHT22;11504;43.334;21.918;2023-06-14T23:16:22;20.5;100.0
22674;DHT22;11504;43.334;21.918;2023-06-14T23:21:00;20.4;100.0
22674;DHT22;11504;43.334;21.918;2023-06-14T23:25:36;20.4;100.0
22674;DHT22;11504;43.334;21.918;2023-06-14T23:30:13;20.4;100.0
22674;DHT22;11504;43.334;21.918;2023-06-14T23:34:50;20.4;100.0
22674;DHT22;11504;43.334;21.918;2023-06-14T23:39:26;20.3;100.0
22674;DHT22;11504;43.334;21.918;2023-06-14T23:44:03;20.3;100.0
22674;DHT22;11504;43.334;21.918;2023-06-14T23:48:40;20.2;100.0
22674;DHT22;11504;43.334;21.918;2023-06-14T23:53:16;20.2;100.0
22674;DHT22;11504;43.334;21.918;2023-06-14T23:57:53;20.2;100.0
